3  °C
Temperature
3  °C
  Dewpoint
100  %
   Humidity
Temp | Dewpoint | Humidity
8  km/h
Wind Speed
5  mph
Wind Speed
4  kts
Wind Speed
330°
North North
West

Wind Speed
Overcast
Conditions
Pressure 1018.92 (hPa) - 30.09 (in)
Visibility 6.2 (mi) - 10.0 (km)

Current Conditions
LELN
Location Leon 6km (3.2mi)
Metar :LELN 182230Z AUTO 33004KT 290V010 9999 -UP OVC034/// 03/03 Q1019
Mon 18th February 23:30 pm

Airport
  Metar Aviation API Data Provided by https://www.checkwx.com/ CSS/SVG/PHP scripts by weather34.com © 2015-2019